createdAt,value
2022-08-30T00:00:59.705Z,36.2
2022-08-30T00:02:01.360Z,36.2
2022-08-30T00:03:00.802Z,36.5
2022-08-30T00:04:00.704Z,36.6
2022-08-30T00:05:00.439Z,36.3
2022-08-30T00:06:00.160Z,36.4
2022-08-30T00:07:00.039Z,36.1
2022-08-30T00:07:59.712Z,36
2022-08-30T00:09:01.408Z,36.5
2022-08-30T00:10:01.097Z,36.3
2022-08-30T00:11:01.655Z,36.1
2022-08-30T00:12:01.556Z,36.2
2022-08-30T00:13:01.215Z,35.9
2022-08-30T00:14:00.926Z,36
2022-08-30T00:15:00.641Z,35.9
2022-08-30T00:16:00.641Z,35.9
2022-08-30T00:17:00.539Z,35.9
2022-08-30T00:18:00.189Z,35.9
2022-08-30T00:18:59.832Z,35.9
2022-08-30T00:20:01.465Z,36
2022-08-30T00:21:01.127Z,36.3
2022-08-30T00:22:00.871Z,36.3
2022-08-30T00:23:00.814Z,36.7
2022-08-30T00:24:00.579Z,37
2022-08-30T00:25:00.287Z,37.1
2022-08-30T00:26:00.097Z,37.4
2022-08-30T00:26:59.881Z,37.1
2022-08-30T00:27:59.566Z,37.1
2022-08-30T00:29:01.213Z,37.4
2022-08-30T00:30:00.897Z,37.4
2022-08-30T00:31:01.121Z,37.5
2022-08-30T00:32:00.938Z,37.7
2022-08-30T00:33:00.638Z,37.7
2022-08-30T00:34:01.063Z,37.7
2022-08-30T00:35:00.786Z,37.6
2022-08-30T00:36:00.455Z,37.3
2022-08-30T00:37:00.119Z,37.6
2022-08-30T00:37:59.867Z,37.5
2022-08-30T00:39:01.531Z,37.8
2022-08-30T00:40:01.246Z,37.9
2022-08-30T00:41:01.053Z,37.8
2022-08-30T00:42:00.902Z,37.8
2022-08-30T00:43:05.642Z,38
2022-08-30T00:44:00.868Z,37.9
2022-08-30T00:45:00.604Z,37.8
2022-08-30T00:46:00.343Z,37.5
2022-08-30T00:47:00.133Z,37.7
2022-08-30T00:48:05.516Z,37.8
2022-08-30T00:49:00.838Z,37.9
2022-08-30T00:50:00.500Z,38
2022-08-30T00:51:00.257Z,38.5
2022-08-30T00:51:59.944Z,38.7
2022-08-30T00:53:05.111Z,38.8
2022-08-30T00:54:00.978Z,38.7
2022-08-30T00:55:00.671Z,38.8
2022-08-30T00:56:00.420Z,38.8
2022-08-30T00:57:00.178Z,38.6
2022-08-30T00:58:05.459Z,38.3
2022-08-30T00:59:00.909Z,38.3
2022-08-30T01:00:01.034Z,38.4
2022-08-30T01:01:00.756Z,38.5
2022-08-30T01:02:01.640Z,38.4
2022-08-30T01:03:07.238Z,38.2
2022-08-30T01:04:01.450Z,38
2022-08-30T01:05:01.465Z,38
2022-08-30T01:06:00.573Z,38
2022-08-30T01:07:00.589Z,38.4
2022-08-30T01:08:11.083Z,38.4
2022-08-30T01:09:01.489Z,38.1
2022-08-30T01:10:01.396Z,37.8
2022-08-30T01:11:01.080Z,37.3
2022-08-30T01:12:00.894Z,37.1
2022-08-30T01:13:13.141Z,37.1
2022-08-30T01:14:01.133Z,37.5
2022-08-30T01:15:00.769Z,38.1
2022-08-30T01:16:00.567Z,38.3
2022-08-30T01:17:01.419Z,38.6
2022-08-30T01:18:13.553Z,38.6
2022-08-30T01:19:02.111Z,38.4
2022-08-30T01:20:01.546Z,38.4
2022-08-30T01:21:01.284Z,38.2
2022-08-30T01:22:00.747Z,37.8
2022-08-30T01:23:00.479Z,37.8
2022-08-30T01:24:00.072Z,37.6
2022-08-30T01:24:59.817Z,37.5
2022-08-30T01:26:01.754Z,37.2
2022-08-30T01:27:01.619Z,37.4
2022-08-30T01:28:01.301Z,37.5
2022-08-30T01:29:01.430Z,38.1
2022-08-30T01:30:01.092Z,38
2022-08-30T01:31:00.852Z,38.1
2022-08-30T01:32:00.954Z,38.2
2022-08-30T01:33:00.756Z,38.2
2022-08-30T01:34:00.453Z,38.3
2022-08-30T01:35:00.103Z,38.4
2022-08-30T01:35:59.855Z,37.9
2022-08-30T01:37:01.561Z,37.8
2022-08-30T01:38:00.660Z,37.8
2022-08-30T01:39:01.359Z,37.6
2022-08-30T01:40:01.448Z,37.3
2022-08-30T01:41:01.513Z,37.2
2022-08-30T01:42:01.456Z,37.3
2022-08-30T01:43:01.174Z,37.3
2022-08-30T01:44:00.898Z,37.2
2022-08-30T01:45:00.564Z,37.1
2022-08-30T01:46:00.382Z,37
2022-08-30T01:47:00.572Z,36.9
2022-08-30T01:48:02.717Z,36.6
2022-08-30T01:49:01.448Z,36.5
2022-08-30T01:50:01.144Z,36.8
2022-08-30T01:51:00.848Z,36.3
2022-08-30T01:52:01.569Z,36
2022-08-30T01:53:01.366Z,36.1
2022-08-30T01:54:01.005Z,36
2022-08-30T01:55:00.674Z,36.7
2022-08-30T01:56:00.366Z,37.3
2022-08-30T01:57:00.071Z,37.9
2022-08-30T01:57:59.890Z,38.2
2022-08-30T01:59:02.922Z,38.6
2022-08-30T02:00:00.668Z,38.8
2022-08-30T02:01:00.420Z,38.8
2022-08-30T02:02:00.201Z,39.4
2022-08-30T02:02:59.906Z,39.6
2022-08-30T02:04:00.215Z,39.7
2022-08-30T02:05:00.017Z,39.8
2022-08-30T02:05:59.812Z,40.2
2022-08-30T02:07:01.571Z,40.6
2022-08-30T02:08:01.269Z,40.6
2022-08-30T02:09:01.249Z,40.7
2022-08-30T02:10:01.206Z,40.7
2022-08-30T02:11:00.934Z,40.9
2022-08-30T02:12:00.684Z,41
2022-08-30T02:13:00.465Z,41.1
2022-08-30T02:14:00.351Z,41.2
2022-08-30T02:15:00.003Z,41.5
2022-08-30T02:15:59.774Z,41.5
2022-08-30T02:17:01.615Z,41.5
2022-08-30T02:18:01.389Z,42
2022-08-30T02:19:01.404Z,41.5
2022-08-30T02:20:01.128Z,41.5
2022-08-30T02:21:00.831Z,41.5
2022-08-30T02:22:00.539Z,41.7
2022-08-30T02:23:01.561Z,42.2
2022-08-30T02:24:01.293Z,41.6
2022-08-30T02:25:01.171Z,41.6
2022-08-30T02:26:00.818Z,41.5
2022-08-30T02:27:00.473Z,41.5
2022-08-30T02:28:00.356Z,41.8
2022-08-30T02:29:01.067Z,42.3
2022-08-30T02:30:01.542Z,42.3
2022-08-30T02:31:02.367Z,42.4
2022-08-30T02:32:01.625Z,42.2
2022-08-30T02:33:01.404Z,42.6
2022-08-30T02:34:00.916Z,42.8
2022-08-30T02:35:00.628Z,42.8
2022-08-30T02:36:00.323Z,42.7
2022-08-30T02:37:00.021Z,42.8
2022-08-30T02:37:59.727Z,43.4
2022-08-30T02:39:01.784Z,43.8
2022-08-30T02:40:01.510Z,44
2022-08-30T02:41:01.341Z,44.1
2022-08-30T02:42:01.072Z,44.1
2022-08-30T02:43:00.783Z,44.3
2022-08-30T02:44:04.717Z,44.2
2022-08-30T02:45:01.827Z,44.5
2022-08-30T02:46:01.363Z,44.7
2022-08-30T02:47:01.783Z,44.6
2022-08-30T02:48:01.257Z,44.4
2022-08-30T02:49:32.077Z,44.3
2022-08-30T02:50:01.541Z,44.2
2022-08-30T02:51:01.153Z,44.4
2022-08-30T02:52:00.829Z,44.2
2022-08-30T02:53:00.848Z,44.6
2022-08-30T02:54:11.128Z,44.6
2022-08-30T02:55:01.562Z,44.4
2022-08-30T02:56:00.899Z,44
2022-08-30T02:57:00.551Z,43.9
2022-08-30T02:58:00.247Z,43.6
2022-08-30T02:59:14.211Z,43.4
2022-08-30T03:00:01.566Z,43.1
2022-08-30T03:01:01.071Z,43.2
2022-08-30T03:02:00.713Z,43.3
2022-08-30T03:03:00.400Z,42.9
2022-08-30T03:04:14.709Z,42.8
2022-08-30T03:05:01.115Z,42.6
2022-08-30T03:06:01.265Z,42.4
2022-08-30T03:07:00.629Z,42.5
2022-08-30T03:08:00.361Z,42.6
2022-08-30T03:09:14.885Z,42.7
2022-08-30T03:10:01.425Z,42.6
2022-08-30T03:11:00.728Z,42.8
2022-08-30T03:12:00.457Z,43.2
2022-08-30T03:13:00.160Z,43.4
2022-08-30T03:13:59.843Z,43.4
2022-08-30T03:15:01.595Z,43.1
2022-08-30T03:16:01.333Z,43.1
2022-08-30T03:17:01.101Z,42.6
2022-08-30T03:18:01.617Z,42.4
2022-08-30T03:19:00.897Z,42
2022-08-30T03:20:00.603Z,42
2022-08-30T03:21:00.460Z,42.2
2022-08-30T03:22:00.333Z,41.9
2022-08-30T03:23:00.038Z,41.8
2022-08-30T03:23:59.813Z,42.3
2022-08-30T03:25:01.730Z,42.2
2022-08-30T03:26:01.413Z,42.5
2022-08-30T03:27:01.161Z,42.6
2022-08-30T03:28:00.835Z,42.9
2022-08-30T03:29:00.787Z,43.3
2022-08-30T03:30:00.445Z,43.4
2022-08-30T03:31:00.083Z,43.6
2022-08-30T03:32:00.016Z,43.8
2022-08-30T03:32:59.831Z,43.8
2022-08-30T03:34:00.930Z,43.7
2022-08-30T03:35:00.613Z,43.9
2022-08-30T03:36:00.255Z,43.9
2022-08-30T03:36:59.895Z,43.9
2022-08-30T03:37:59.602Z,44
2022-08-30T03:39:01.261Z,44
2022-08-30T03:40:01.142Z,43.8
2022-08-30T03:41:01.088Z,43.5
2022-08-30T03:42:00.851Z,43.1
2022-08-30T03:43:00.868Z,43.2
2022-08-30T03:44:00.881Z,43.5
2022-08-30T03:45:00.844Z,43.6
2022-08-30T03:46:00.542Z,43.6
2022-08-30T03:47:00.433Z,43.8
2022-08-30T03:48:00.234Z,43.7
2022-08-30T03:49:00.431Z,43.5
2022-08-30T03:50:00.116Z,43.5
2022-08-30T03:50:59.886Z,43.5
2022-08-30T03:51:59.595Z,43.7
2022-08-30T03:53:01.261Z,43.7
2022-08-30T03:54:01.031Z,43.4
2022-08-30T03:55:01.007Z,43.3
2022-08-30T03:56:02.020Z,43.2
2022-08-30T03:57:01.451Z,43.1
2022-08-30T03:58:01.108Z,42.1
2022-08-30T03:59:00.861Z,41.8
2022-08-30T04:00:00.561Z,42.4
2022-08-30T04:01:00.477Z,42.6
2022-08-30T04:02:00.388Z,43
2022-08-30T04:03:00.372Z,42.7
2022-08-30T04:04:00.148Z,42.6
2022-08-30T04:04:59.810Z,42.7
2022-08-30T04:06:01.515Z,42.6
2022-08-30T04:07:00.848Z,42.5
2022-08-30T04:08:00.847Z,42.3
2022-08-30T04:09:00.855Z,41.9
2022-08-30T04:10:00.546Z,42
2022-08-30T04:11:00.217Z,41.8
2022-08-30T04:11:59.878Z,41.7
2022-08-30T04:12:59.631Z,41.8
2022-08-30T04:14:01.377Z,41.7
2022-08-30T04:15:01.753Z,41.8
2022-08-30T04:16:01.417Z,42
2022-08-30T04:17:01.787Z,41.8
2022-08-30T04:18:00.557Z,41.7
2022-08-30T04:19:00.175Z,41.6
2022-08-30T04:19:59.884Z,41.7
2022-08-30T04:20:59.581Z,41.4
2022-08-30T04:22:01.333Z,41.6
2022-08-30T04:23:01.127Z,41.4
2022-08-30T04:24:00.909Z,41.2
2022-08-30T04:25:00.892Z,41
2022-08-30T04:26:01.203Z,41.1
2022-08-30T04:27:00.885Z,41.3
2022-08-30T04:28:00.545Z,41.6
2022-08-30T04:29:00.196Z,41.6
2022-08-30T04:30:05.178Z,41.8
2022-08-30T04:31:00.986Z,42.2
2022-08-30T04:32:01.507Z,42.4
2022-08-30T04:33:01.259Z,42.9
2022-08-30T04:34:00.989Z,43.1
2022-08-30T04:35:08.270Z,43.2
2022-08-30T04:36:00.698Z,43.7
2022-08-30T04:37:00.967Z,43.9
2022-08-30T04:38:00.762Z,43.9
2022-08-30T04:39:00.501Z,43.9
2022-08-30T04:40:11.274Z,43.9
2022-08-30T04:41:01.668Z,43.9
2022-08-30T04:42:00.959Z,43.6
2022-08-30T04:43:00.602Z,43.8
2022-08-30T04:44:00.260Z,44
2022-08-30T04:45:14.577Z,44.3
2022-08-30T04:46:01.406Z,44.9
2022-08-30T04:47:01.418Z,45.2
2022-08-30T04:48:01.073Z,45.2
2022-08-30T04:49:00.784Z,45.9
2022-08-30T04:50:00.468Z,46.4
2022-08-30T04:51:00.237Z,46.6
2022-08-30T04:51:59.877Z,46.7
2022-08-30T04:52:59.683Z,47.4
2022-08-30T04:54:01.418Z,47.5
2022-08-30T04:55:01.407Z,48.1
2022-08-30T04:56:01.155Z,48.6
2022-08-30T04:57:00.743Z,49.5
2022-08-30T04:58:00.381Z,49.7
2022-08-30T04:59:00.032Z,48.7
2022-08-30T04:59:59.731Z,49.7
2022-08-30T05:01:01.883Z,49.3
2022-08-30T05:02:00.937Z,51.6
2022-08-30T05:03:01.144Z,52
2022-08-30T05:04:00.732Z,52.3
2022-08-30T05:05:00.727Z,53.9
2022-08-30T05:06:00.455Z,55.2
2022-08-30T05:07:00.080Z,57.7
2022-08-30T05:07:59.745Z,59.6
2022-08-30T05:09:01.429Z,60.7
2022-08-30T05:10:00.753Z,68.3
2022-08-30T05:11:00.549Z,68.8
2022-08-30T05:12:00.541Z,69.5
2022-08-30T05:13:00.159Z,72.2
2022-08-30T05:13:59.997Z,75.1
2022-08-30T05:14:59.725Z,76.2
2022-08-30T05:16:01.481Z,78.8
2022-08-30T05:17:01.420Z,84.8
2022-08-30T05:18:01.171Z,87.4
2022-08-30T05:19:00.863Z,89.4
2022-08-30T05:20:00.493Z,91.7
2022-08-30T05:21:00.313Z,92.7
2022-08-30T05:22:00.275Z,96.9
2022-08-30T05:23:00.297Z,99.9
2022-08-30T05:24:00.151Z,99.9
2022-08-30T05:24:59.823Z,99.9
2022-08-30T05:26:02.277Z,99.9
2022-08-30T05:27:01.273Z,99.9
2022-08-30T05:28:00.932Z,99.9
2022-08-30T05:29:00.632Z,99.9
2022-08-30T05:30:01.344Z,99.9
2022-08-30T05:31:01.231Z,99.9
2022-08-30T05:32:00.760Z,99.9
2022-08-30T05:33:00.453Z,99.9
2022-08-30T05:34:00.532Z,99.9
2022-08-30T05:35:00.466Z,99.9
2022-08-30T05:36:00.187Z,99.9
2022-08-30T05:37:01.004Z,99.9
2022-08-30T05:38:01.104Z,99.9
2022-08-30T05:39:01.326Z,99.9
2022-08-30T05:40:00.919Z,99.9
2022-08-30T05:41:02.368Z,99.9
2022-08-30T05:42:01.305Z,99.9
2022-08-30T05:43:01.823Z,99.9
2022-08-30T05:44:01.009Z,99.9
2022-08-30T05:45:00.730Z,99.9
2022-08-30T05:46:00.374Z,99.9
2022-08-30T05:47:00.155Z,99.9
2022-08-30T05:47:59.837Z,99.9
2022-08-30T05:49:01.584Z,99.9
2022-08-30T05:50:01.202Z,99.9
2022-08-30T05:51:00.886Z,99.9
2022-08-30T05:52:00.794Z,99.9
2022-08-30T05:53:00.650Z,99.9
2022-08-30T05:54:00.606Z,99.9
2022-08-30T05:55:00.380Z,99.9
2022-08-30T05:56:01.965Z,99.9
2022-08-30T05:57:00.939Z,99.9
2022-08-30T05:58:00.611Z,99.9
2022-08-30T05:59:00.727Z,99.9
2022-08-30T06:00:00.540Z,99.9
2022-08-30T06:01:06.829Z,99.9
2022-08-30T06:02:01.520Z,99.9
2022-08-30T06:03:01.004Z,99.9
2022-08-30T06:04:03.938Z,99.9
2022-08-30T06:05:00.667Z,99.9
2022-08-30T06:06:11.534Z,99.9
2022-08-30T06:07:01.124Z,99.9
2022-08-30T06:08:00.972Z,99.9
2022-08-30T06:09:00.726Z,99.9
2022-08-30T06:10:00.476Z,99.9
2022-08-30T06:11:00.162Z,99.9
2022-08-30T06:11:59.892Z,99.9
2022-08-30T06:12:59.688Z,99.9
2022-08-30T06:14:02.007Z,99.9
2022-08-30T06:15:01.392Z,99.9
2022-08-30T06:16:01.746Z,99.9
2022-08-30T06:17:00.846Z,99.9
2022-08-30T06:18:00.479Z,99.9
2022-08-30T06:19:01.011Z,99.9
2022-08-30T06:20:00.656Z,99.9
2022-08-30T06:21:00.377Z,99.9
2022-08-30T06:22:00.107Z,99.9
2022-08-30T06:23:00.690Z,99.9
2022-08-30T06:24:00.537Z,99.9
2022-08-30T06:25:00.300Z,99.9
2022-08-30T06:25:59.992Z,99.9
2022-08-30T06:26:59.845Z,99.9
2022-08-30T06:28:01.638Z,99.9
2022-08-30T06:29:01.404Z,99.9
2022-08-30T06:30:00.618Z,99.9
2022-08-30T06:31:00.419Z,99.9
2022-08-30T06:32:00.297Z,99.9
2022-08-30T06:33:00.239Z,99.9
2022-08-30T06:33:59.933Z,99.9
2022-08-30T06:34:59.584Z,99.9
2022-08-30T06:36:05.385Z,99.9
2022-08-30T06:37:00.881Z,99.9
2022-08-30T06:38:00.751Z,99.9
2022-08-30T06:39:00.426Z,99.9
2022-08-30T06:40:00.782Z,99.9
2022-08-30T06:41:00.678Z,99.9
2022-08-30T06:42:00.410Z,99.9
2022-08-30T06:43:00.054Z,99.9
2022-08-30T06:43:59.944Z,99.9
2022-08-30T06:44:59.596Z,99.9
2022-08-30T06:46:01.436Z,99.9
2022-08-30T06:47:00.774Z,99.9
2022-08-30T06:48:00.487Z,99.9
2022-08-30T06:49:00.374Z,99.9
2022-08-30T06:50:00.003Z,99.9
2022-08-30T06:50:59.731Z,99.9
2022-08-30T06:52:01.403Z,99.9
2022-08-30T06:53:01.390Z,99.9
2022-08-30T06:54:01.090Z,99.9
2022-08-30T06:55:00.988Z,99.9
2022-08-30T06:56:00.839Z,99.9
2022-08-30T06:57:00.513Z,99.9
2022-08-30T06:58:00.244Z,99.9
2022-08-30T06:58:59.997Z,99.9
2022-08-30T06:59:59.717Z,99.9
2022-08-30T07:01:01.565Z,99.9
2022-08-30T07:02:00.860Z,99.9
2022-08-30T07:03:00.815Z,99.9
2022-08-30T07:04:00.539Z,99.9
2022-08-30T07:05:00.173Z,99.9
2022-08-30T07:05:59.914Z,99.9
2022-08-30T07:06:59.642Z,99.9
2022-08-30T07:08:01.283Z,99.9
2022-08-30T07:09:01.813Z,99.9
2022-08-30T07:10:01.100Z,99.9
2022-08-30T07:11:00.705Z,99.9
2022-08-30T07:12:00.423Z,99.9
2022-08-30T07:13:00.093Z,99.9
2022-08-30T07:13:59.787Z,99.9
2022-08-30T07:15:01.453Z,99.9
2022-08-30T07:16:01.167Z,99.9
2022-08-30T07:17:00.831Z,99.9
2022-08-30T07:18:00.537Z,99.9
2022-08-30T07:19:00.296Z,99.9
2022-08-30T07:20:00.051Z,99.9
2022-08-30T07:20:59.743Z,99.9
2022-08-30T07:22:02.294Z,99.9
2022-08-30T07:23:01.410Z,99.9
2022-08-30T07:24:01.295Z,99.9
2022-08-30T07:25:00.981Z,99.9
2022-08-30T07:26:00.582Z,99.9
2022-08-30T07:27:03.147Z,99.9
2022-08-30T07:28:01.963Z,99.9
2022-08-30T07:29:00.878Z,99.9
2022-08-30T07:30:00.687Z,99.9
2022-08-30T07:31:00.578Z,99.9
2022-08-30T07:32:03.417Z,99.9
2022-08-30T07:33:01.142Z,99.9
2022-08-30T07:34:00.847Z,99.9
2022-08-30T07:35:00.794Z,99.9
2022-08-30T07:36:00.484Z,99.9
2022-08-30T07:37:06.834Z,99.9
2022-08-30T07:38:00.560Z,99.9
2022-08-30T07:39:00.264Z,99.9
2022-08-30T07:40:00.457Z,99.9
2022-08-30T07:41:00.389Z,99.9
2022-08-30T07:42:10.651Z,99.9
2022-08-30T07:43:01.109Z,99.9
2022-08-30T07:44:00.913Z,99.9
2022-08-30T07:45:00.601Z,99.9
2022-08-30T07:46:00.369Z,99.9
2022-08-30T07:47:12.465Z,99.9
2022-08-30T07:48:01.148Z,99.9
2022-08-30T07:49:00.835Z,99.9
2022-08-30T07:50:01.457Z,99.9
2022-08-30T07:51:04.994Z,99.9
2022-08-30T07:52:16.934Z,99.9
2022-08-30T07:53:01.160Z,99.9
2022-08-30T07:54:00.939Z,99.9
2022-08-30T07:55:00.673Z,99.9
2022-08-30T07:56:00.428Z,99.9
2022-08-30T07:57:01.347Z,99.9
2022-08-30T07:59:01.620Z,99.9
2022-08-30T08:00:01.954Z,99.9
2022-08-30T08:01:01.396Z,99.9
2022-08-30T08:02:01.258Z,99.9
2022-08-30T08:03:01.129Z,99.9
2022-08-30T08:04:01.079Z,99.9
2022-08-30T08:05:00.754Z,99.9
2022-08-30T08:06:00.388Z,99.9
2022-08-30T08:07:00.147Z,99.9
2022-08-30T08:08:00.367Z,99.9
2022-08-30T08:09:00.153Z,99.9
2022-08-30T08:09:59.852Z,99.9
2022-08-30T08:11:01.656Z,99.9
2022-08-30T08:12:01.292Z,99.9
2022-08-30T08:13:01.206Z,99.9
2022-08-30T08:14:01.020Z,99.9
2022-08-30T08:15:02.124Z,99.9
2022-08-30T08:16:00.895Z,99.9
2022-08-30T08:17:00.606Z,99.9
2022-08-30T08:18:00.371Z,99.9
2022-08-30T08:19:00.130Z,99.9
2022-08-30T08:19:59.782Z,99.9
2022-08-30T08:21:01.561Z,99.9
2022-08-30T08:23:01.491Z,99.6
2022-08-30T08:24:01.280Z,98.7
2022-08-30T08:25:00.976Z,98.4
2022-08-30T08:26:00.677Z,97
2022-08-30T08:27:00.372Z,96.3
2022-08-30T08:28:00.087Z,94.9
2022-08-30T08:28:59.881Z,95.3
2022-08-30T08:29:59.587Z,95.3
2022-08-30T08:31:01.476Z,94.9
2022-08-30T08:32:01.242Z,95
2022-08-30T08:33:01.070Z,93.9
2022-08-30T08:35:00.429Z,93.1
2022-08-30T08:36:00.162Z,91.8
2022-08-30T08:36:59.801Z,91.3
2022-08-30T08:38:01.648Z,91.3
2022-08-30T08:39:01.399Z,90.3
2022-08-30T08:40:01.236Z,90.2
2022-08-30T08:41:01.132Z,90.3
2022-08-30T08:42:00.881Z,90.6
2022-08-30T08:43:00.593Z,90.9
2022-08-30T08:44:00.285Z,90.5
2022-08-30T08:45:00.036Z,89.8
2022-08-30T08:45:59.841Z,86.3
2022-08-30T08:47:00.086Z,87
2022-08-30T08:48:01.453Z,88.4
2022-08-30T08:49:01.002Z,89.3
2022-08-30T08:50:00.726Z,90.3
2022-08-30T08:51:02.736Z,90
2022-08-30T08:52:00.843Z,89.9
2022-08-30T08:53:01.165Z,90.2
2022-08-30T08:54:00.671Z,90.6
2022-08-30T08:55:00.800Z,90.2
2022-08-30T08:56:00.571Z,89.3
2022-08-30T08:57:00.254Z,90.3
2022-08-30T08:57:59.980Z,90.6
2022-08-30T08:58:59.659Z,90.3
2022-08-30T09:00:01.558Z,89.3
2022-08-30T09:01:01.496Z,88.3
2022-08-30T09:02:01.230Z,88.9
2022-08-30T09:03:00.939Z,88.4
2022-08-30T09:04:00.718Z,89.9
2022-08-30T09:05:00.473Z,88
2022-08-30T09:06:00.226Z,90.4
2022-08-30T09:06:59.915Z,90.4
2022-08-30T09:07:59.609Z,90.1
2022-08-30T09:09:01.394Z,86.9
2022-08-30T09:10:01.626Z,88.3
2022-08-30T09:11:01.279Z,88
2022-08-30T09:12:00.972Z,88.8
2022-08-30T09:13:02.313Z,89.7
2022-08-30T09:14:01.111Z,89.5
2022-08-30T09:15:00.897Z,91.1
2022-08-30T09:16:00.758Z,89
2022-08-30T09:17:03.015Z,87.3
2022-08-30T09:18:02.347Z,85.8
2022-08-30T09:19:01.005Z,86.5
2022-08-30T09:20:00.717Z,81.3
2022-08-30T09:21:00.527Z,80.2
2022-08-30T09:22:00.429Z,79.4
2022-08-30T09:23:05.694Z,73.8
2022-08-30T09:24:01.152Z,71.4
2022-08-30T09:25:01.204Z,72.3
2022-08-30T09:26:01.022Z,72.5
2022-08-30T09:27:00.837Z,72.3
2022-08-30T09:28:08.034Z,72.8
2022-08-30T09:29:01.558Z,63.9
2022-08-30T09:30:01.477Z,60.6
2022-08-30T09:31:01.471Z,62
2022-08-30T09:32:22.454Z,56.8
2022-08-30T09:33:11.661Z,57.1
2022-08-30T09:34:01.663Z,51.5
2022-08-30T09:35:01.346Z,52.8
2022-08-30T09:36:01.041Z,52.2
2022-08-30T09:37:00.709Z,52.6
2022-08-30T09:38:14.357Z,49.3
2022-08-30T09:39:01.390Z,47.5
2022-08-30T09:40:01.182Z,45.7
2022-08-30T09:41:01.067Z,48.4
2022-08-30T09:42:01.034Z,47.2
2022-08-30T09:43:01.377Z,46.8
2022-08-30T09:44:00.772Z,46.4
2022-08-30T09:45:01.015Z,47
2022-08-30T09:46:00.667Z,47
2022-08-30T09:47:00.380Z,46.9
2022-08-30T09:48:00.200Z,46.5
2022-08-30T09:48:59.903Z,47.2
2022-08-30T09:49:59.587Z,46.9
2022-08-30T09:51:01.349Z,47.9
2022-08-30T09:52:00.926Z,47.4
2022-08-30T09:53:00.627Z,49.5
2022-08-30T09:54:17.413Z,50
2022-08-30T09:55:01.895Z,49.5
2022-08-30T09:56:01.011Z,50.5
2022-08-30T09:57:00.712Z,50.5
2022-08-30T09:58:00.785Z,52.1
2022-08-30T09:59:00.587Z,51.5
2022-08-30T10:00:00.562Z,51.5
2022-08-30T10:01:00.544Z,52.9
2022-08-30T10:02:00.383Z,52.9
2022-08-30T10:03:00.608Z,53.5
2022-08-30T10:04:00.322Z,54.3
2022-08-30T10:04:59.989Z,55.5
2022-08-30T10:05:59.703Z,56
2022-08-30T10:07:01.449Z,55.9
2022-08-30T10:08:01.540Z,56.1
2022-08-30T10:09:01.240Z,56
2022-08-30T10:10:00.947Z,56.7
2022-08-30T10:11:00.657Z,57.5
2022-08-30T10:12:00.533Z,58.7
2022-08-30T10:13:00.376Z,58.4
2022-08-30T10:14:00.373Z,59.8
2022-08-30T10:15:00.289Z,58
2022-08-30T10:15:59.932Z,57.3
2022-08-30T10:16:59.656Z,57.7
2022-08-30T10:18:01.320Z,56.6
2022-08-30T10:19:01.301Z,55.1
2022-08-30T10:20:01.013Z,54.4
2022-08-30T10:21:00.720Z,52.6
2022-08-30T10:22:00.546Z,52.3
2022-08-30T10:23:00.264Z,51.4
2022-08-30T10:23:59.921Z,48.5
2022-08-30T10:24:59.614Z,48.2
2022-08-30T10:26:01.371Z,48.3
2022-08-30T10:27:01.059Z,50.1
2022-08-30T10:28:01.045Z,47.7
2022-08-30T10:29:00.859Z,46.2
2022-08-30T10:30:01.160Z,41.7
2022-08-30T10:31:00.995Z,41.6
2022-08-30T10:32:00.680Z,41.9
2022-08-30T10:33:00.372Z,41.9
2022-08-30T10:34:00.090Z,41.6
2022-08-30T10:35:00.204Z,41.9
2022-08-30T10:35:59.860Z,39.8
2022-08-30T10:37:01.534Z,37.9
2022-08-30T10:38:01.764Z,37.9
2022-08-30T10:39:01.275Z,34.3
2022-08-30T10:40:01.898Z,33.6
2022-08-30T10:41:01.046Z,33.3
2022-08-30T10:42:00.719Z,32
2022-08-30T10:43:00.431Z,32.4
2022-08-30T10:44:00.419Z,32.2
2022-08-30T10:45:00.357Z,30.8
2022-08-30T10:46:00.076Z,31.6
2022-08-30T10:46:59.858Z,31.9
2022-08-30T10:48:00.035Z,30.7
2022-08-30T10:48:59.843Z,32.6
2022-08-30T10:50:01.540Z,32.3
2022-08-30T10:51:01.538Z,33.7
2022-08-30T10:52:01.124Z,33.1
2022-08-30T10:53:00.899Z,32.2
2022-08-30T10:54:00.547Z,32.4
2022-08-30T10:55:00.237Z,33.2
2022-08-30T10:56:00.443Z,33.7
2022-08-30T10:57:00.853Z,34.1
2022-08-30T10:58:00.792Z,33.6
2022-08-30T10:59:00.899Z,34.2
2022-08-30T11:00:00.710Z,33.8
2022-08-30T11:01:01.412Z,33.3
2022-08-30T11:02:01.274Z,33.8
2022-08-30T11:03:01.012Z,33.9
2022-08-30T11:04:03.062Z,34.5
2022-08-30T11:05:00.889Z,34.7
2022-08-30T11:06:00.713Z,35.4
2022-08-30T11:07:00.409Z,35.4
2022-08-30T11:08:00.064Z,35.3
2022-08-30T11:09:05.925Z,37.1
2022-08-30T11:10:02.171Z,36.3
2022-08-30T11:11:00.632Z,34.2
2022-08-30T11:12:00.409Z,32.4
2022-08-30T11:13:00.732Z,34.1
2022-08-30T11:14:10.927Z,33.5
2022-08-30T11:15:01.601Z,34.6
2022-08-30T11:16:00.806Z,33
2022-08-30T11:17:00.822Z,33.5
2022-08-30T11:18:00.574Z,34.3
2022-08-30T11:19:12.326Z,33.7
2022-08-30T11:20:02.403Z,33.5
2022-08-30T11:21:01.223Z,33
2022-08-30T11:22:00.835Z,28.6
2022-08-30T11:23:00.531Z,24.5
2022-08-30T11:24:00.158Z,20
2022-08-30T11:24:59.898Z,20.2
2022-08-30T11:25:59.615Z,18.9
2022-08-30T11:27:00.630Z,18.9
2022-08-30T11:28:00.715Z,17.4
2022-08-30T11:29:00.709Z,17.8
2022-08-30T11:30:00.781Z,16
2022-08-30T11:31:00.564Z,14
2022-08-30T11:32:00.313Z,12.7
2022-08-30T11:33:02.177Z,11.9
2022-08-30T11:34:01.250Z,11.7
2022-08-30T11:35:00.996Z,11.7
2022-08-30T11:36:01.021Z,11.6
2022-08-30T11:37:00.843Z,12.4
2022-08-30T11:38:00.807Z,12.8
2022-08-30T11:39:00.510Z,13.3
2022-08-30T11:40:04.013Z,14.5
2022-08-30T11:41:01.545Z,14.5
2022-08-30T11:42:01.240Z,13.3
2022-08-30T11:43:01.052Z,11.2
2022-08-30T11:44:01.026Z,9.8
2022-08-30T11:45:00.802Z,7.6
2022-08-30T11:46:00.906Z,6.3
2022-08-30T11:47:00.637Z,5.6
2022-08-30T11:48:00.387Z,5.2
2022-08-30T11:49:01.354Z,8
2022-08-30T11:50:01.027Z,5.2
2022-08-30T11:51:00.800Z,7.7
2022-08-30T11:53:00.807Z,9.4
2022-08-30T11:54:00.670Z,9.2
2022-08-30T11:55:00.424Z,8.7
2022-08-30T11:56:00.152Z,8.3
2022-08-30T11:56:59.927Z,8.3
2022-08-30T11:57:59.818Z,7.7
2022-08-30T11:59:01.711Z,7.3
2022-08-30T12:00:01.537Z,8.7
2022-08-30T12:01:01.521Z,9.4
2022-08-30T12:02:00.944Z,9.5
2022-08-30T12:03:01.107Z,10.1
2022-08-30T12:04:01.601Z,9.5
2022-08-30T12:05:00.778Z,10.1
2022-08-30T12:06:00.669Z,10.3
2022-08-30T12:07:00.690Z,9.3
2022-08-30T12:08:00.561Z,8.4
2022-08-30T12:09:02.232Z,9
2022-08-30T12:10:01.036Z,8.4
2022-08-30T12:11:01.541Z,8.1
2022-08-30T12:12:01.231Z,7.3
2022-08-30T12:13:02.077Z,6.9
2022-08-30T12:14:01.249Z,5
2022-08-30T12:15:00.746Z,6
2022-08-30T12:16:00.866Z,6.9
2022-08-30T12:17:00.770Z,6.3
2022-08-30T12:18:00.479Z,6.9
2022-08-30T12:19:00.775Z,7.1
2022-08-30T12:20:00.662Z,7.5
2022-08-30T12:21:01.531Z,7
2022-08-30T12:22:00.929Z,6.1
2022-08-30T12:23:01.157Z,5.8
2022-08-30T12:24:03.743Z,5.6
2022-08-30T12:25:00.923Z,5.2
2022-08-30T12:26:00.627Z,6
2022-08-30T12:27:01.110Z,5.3
2022-08-30T12:28:02.155Z,5.5
2022-08-30T12:29:01.311Z,5.4
2022-08-30T12:30:01.156Z,4.9
2022-08-30T12:31:01.479Z,4.8
2022-08-30T12:32:03.465Z,5.5
2022-08-30T12:33:01.072Z,5.7
2022-08-30T12:34:00.900Z,5.1
2022-08-30T12:35:03.809Z,4.8
2022-08-30T12:36:00.678Z,5.1
2022-08-30T12:37:00.392Z,4.9
2022-08-30T12:38:00.216Z,5.9
2022-08-30T12:39:04.967Z,5.9
2022-08-30T12:40:06.757Z,6
2022-08-30T12:41:01.370Z,4.5
2022-08-30T12:42:01.228Z,4.5
2022-08-30T12:43:00.956Z,4.5
2022-08-30T12:44:00.630Z,4.5
2022-08-30T12:45:10.640Z,4.5
2022-08-30T12:46:07.535Z,4
2022-08-30T12:47:01.749Z,3.6
2022-08-30T12:48:01.497Z,4.1
2022-08-30T12:49:00.772Z,4.5
2022-08-30T12:50:15.332Z,4.5
2022-08-30T12:51:01.099Z,4.8
2022-08-30T12:52:01.715Z,4.4
2022-08-30T12:53:00.973Z,4.2
2022-08-30T12:54:01.422Z,4.5
2022-08-30T12:55:17.430Z,3.8
2022-08-30T12:56:01.118Z,4.6
2022-08-30T12:57:13.916Z,4.3
2022-08-30T12:58:01.229Z,4.7
2022-08-30T12:59:01.053Z,4.4
2022-08-30T13:00:01.945Z,4.7
2022-08-30T13:01:01.572Z,3.7
2022-08-30T13:02:01.290Z,4.1
2022-08-30T13:03:01.110Z,3.9
2022-08-30T13:04:00.908Z,4.8
2022-08-30T13:05:00.756Z,5.2
2022-08-30T13:06:00.488Z,4.7
2022-08-30T13:07:01.262Z,4.7
2022-08-30T13:08:01.539Z,5.2
2022-08-30T13:09:01.536Z,5
2022-08-30T13:10:01.158Z,4.6
2022-08-30T13:11:07.800Z,6.4
2022-08-30T13:12:00.811Z,6.5
2022-08-30T13:13:00.723Z,5.5
2022-08-30T13:14:00.452Z,6.3
2022-08-30T13:15:00.128Z,6.3
2022-08-30T13:16:00.469Z,6.4
2022-08-30T13:17:00.635Z,5.7
2022-08-30T13:18:00.392Z,6.5
2022-08-30T13:19:00.383Z,6.2
2022-08-30T13:20:00.143Z,6
2022-08-30T13:21:00.052Z,5.8
2022-08-30T13:21:59.857Z,6.9
2022-08-30T13:23:01.615Z,6.9
2022-08-30T13:24:01.910Z,6.8
2022-08-30T13:25:00.893Z,6.8
2022-08-30T13:26:00.692Z,7.5
2022-08-30T13:27:00.402Z,7.9
2022-08-30T13:28:00.107Z,8.3
2022-08-30T13:29:00.389Z,8
2022-08-30T13:30:00.273Z,8.2